Capitol Logistics 235


KPHX
Phoenix Sky Harbor International Airport
Phoenix, Arizona, US
KMIA
Miami International Airport
Miami, Florida, US

Route Details

Aircraft Information
Primary: Boeing 767-300BDSF
Backup: Not Available
Route Data
Distance: 1723nm
Sched. Duration: 4h 00m
Avg. Duration: 4h 02m (+2m)
Times Flown: 6
Recm'd Route: ECLPS1 PHASE ELP FST J86 LEV Y290 BLVNS Y290 BAGGS SSCOT5
Planned Altitude: 35,000ft
Origin Wx: KPHX 310651Z 00000KT 10SM FEW250 18/04 A3010 RMK AO2 SLP181 T01830039 402500117
Dest. Wx: KMIA 310653Z 00000KT 10SM BKN017 24/22 A2998 RMK AO2 SLP151 T02440217
Notes:

Financial History
Total Freight: 460,621lbs
Average Load: 76,770lbs/flt
Fuel Used: 253,516lbs
Avg. Fuel Used: 42,253lbs/flt
Fuel Expense: $205,348
Avg. Fuel Expense: $34,225
Avg. Fuel Cost: $0.81/lbs
Total Gross Income: $644,775
Pilot Pay: $1,004
Total Expenses: $69,948
Total Revenue: $365,150
Average Revenue: $107,462.58